sensor_id;sensor_type;location;lat;lon;timestamp;pressure;altitude;pressure_sealevel;temperature;humidity
11038;BME280;5572;49.540;11.932;2023-02-25T00:01:04;94114.34;;;3.29;100.00
11038;BME280;5572;49.540;11.932;2023-02-25T00:03:34;94111.00;;;3.24;100.00
11038;BME280;5572;49.540;11.932;2023-02-25T00:06:02;94118.88;;;3.29;100.00
11038;BME280;5572;49.540;11.932;2023-02-25T00:08:30;94120.50;;;3.38;100.00
11038;BME280;5572;49.540;11.932;2023-02-25T00:10:59;94135.97;;;3.28;100.00
11038;BME280;5572;49.540;11.932;2023-02-25T00:13:28;94140.22;;;3.29;100.00
11038;BME280;5572;49.540;11.932;2023-02-25T00:15:56;94144.34;;;3.35;100.00
11038;BME280;5572;49.540;11.932;2023-02-25T00:18:24;94155.31;;;3.33;100.00
11038;BME280;5572;49.540;11.932;2023-02-25T00:20:54;94157.31;;;3.28;100.00
11038;BME280;5572;49.540;11.932;2023-02-25T00:23:22;94180.06;;;3.25;100.00
11038;BME280;5572;49.540;11.932;2023-02-25T00:25:57;94177.28;;;3.30;100.00
11038;BME280;5572;49.540;11.932;2023-02-25T00:28:24;94194.00;;;3.22;100.00
11038;BME280;5572;49.540;11.932;2023-02-25T00:30:52;94196.19;;;3.20;100.00
11038;BME280;5572;49.540;11.932;2023-02-25T00:33:20;94196.28;;;3.29;100.00
11038;BME280;5572;49.540;11.932;2023-02-25T00:35:47;94205.22;;;3.11;100.00
11038;BME280;5572;49.540;11.932;2023-02-25T00:38:17;94207.63;;;2.99;100.00
11038;BME280;5572;49.540;11.932;2023-02-25T00:40:45;94210.47;;;3.02;100.00
11038;BME280;5572;49.540;11.932;2023-02-25T00:43:12;94216.78;;;3.06;100.00
11038;BME280;5572;49.540;11.932;2023-02-25T00:45:40;94220.88;;;3.04;100.00
11038;BME280;5572;49.540;11.932;2023-02-25T00:48:07;94214.81;;;3.12;100.00
11038;BME280;5572;49.540;11.932;2023-02-25T00:50:35;94222.13;;;3.06;100.00
11038;BME280;5572;49.540;11.932;2023-02-25T00:53:05;94234.44;;;3.16;100.00
11038;BME280;5572;49.540;11.932;2023-02-25T00:55:34;94239.78;;;3.16;100.00
11038;BME280;5572;49.540;11.932;2023-02-25T00:58:01;94241.16;;;3.27;100.00
11038;BME280;5572;49.540;11.932;2023-02-25T01:00:29;94250.69;;;3.06;100.00
11038;BME280;5572;49.540;11.932;2023-02-25T01:02:56;94252.56;;;3.05;100.00
11038;BME280;5572;49.540;11.932;2023-02-25T01:05:24;94256.28;;;3.18;100.00
11038;BME280;5572;49.540;11.932;2023-02-25T01:07:51;94278.16;;;3.06;100.00
11038;BME280;5572;49.540;11.932;2023-02-25T01:10:19;94269.56;;;3.09;100.00
11038;BME280;5572;49.540;11.932;2023-02-25T01:12:49;94272.25;;;3.09;100.00
11038;BME280;5572;49.540;11.932;2023-02-25T01:15:17;94279.25;;;3.05;100.00
11038;BME280;5572;49.540;11.932;2023-02-25T01:17:44;94286.47;;;2.91;100.00
11038;BME280;5572;49.540;11.932;2023-02-25T01:20:12;94291.22;;;2.81;100.00
11038;BME280;5572;49.540;11.932;2023-02-25T01:22:44;94297.94;;;2.78;100.00
11038;BME280;5572;49.540;11.932;2023-02-25T01:25:12;94306.53;;;2.75;100.00
11038;BME280;5572;49.540;11.932;2023-02-25T01:27:42;94310.84;;;2.71;100.00
11038;BME280;5572;49.540;11.932;2023-02-25T01:30:12;94311.34;;;2.73;100.00
11038;BME280;5572;49.540;11.932;2023-02-25T01:32:40;94310.25;;;2.61;100.00
11038;BME280;5572;49.540;11.932;2023-02-25T01:35:09;94311.53;;;2.63;100.00
11038;BME280;5572;49.540;11.932;2023-02-25T01:37:37;94309.75;;;2.59;100.00
11038;BME280;5572;49.540;11.932;2023-02-25T01:40:13;94301.56;;;2.55;100.00
11038;BME280;5572;49.540;11.932;2023-02-25T01:42:42;94325.88;;;2.67;100.00
11038;BME280;5572;49.540;11.932;2023-02-25T01:45:30;94333.88;;;2.54;100.00
11038;BME280;5572;49.540;11.932;2023-02-25T01:48:04;94337.22;;;2.59;100.00
11038;BME280;5572;49.540;11.932;2023-02-25T01:50:42;94352.72;;;2.57;100.00
11038;BME280;5572;49.540;11.932;2023-02-25T01:53:10;94352.41;;;2.59;100.00
11038;BME280;5572;49.540;11.932;2023-02-25T01:55:40;94354.59;;;2.57;100.00
11038;BME280;5572;49.540;11.932;2023-02-25T01:58:09;94362.22;;;2.63;100.00
11038;BME280;5572;49.540;11.932;2023-02-25T02:00:44;94363.00;;;2.64;100.00
11038;BME280;5572;49.540;11.932;2023-02-25T02:03:12;94366.25;;;2.61;100.00
11038;BME280;5572;49.540;11.932;2023-02-25T02:05:58;94372.00;;;2.68;100.00
11038;BME280;5572;49.540;11.932;2023-02-25T02:08:27;94374.75;;;2.63;100.00
11038;BME280;5572;49.540;11.932;2023-02-25T02:10:54;94378.19;;;2.63;100.00
11038;BME280;5572;49.540;11.932;2023-02-25T02:13:24;94389.38;;;2.65;100.00
11038;BME280;5572;49.540;11.932;2023-02-25T02:16:03;94391.53;;;2.63;100.00
11038;BME280;5572;49.540;11.932;2023-02-25T02:18:39;94392.91;;;2.61;100.00
11038;BME280;5572;49.540;11.932;2023-02-25T02:21:19;94407.13;;;2.56;100.00
11038;BME280;5572;49.540;11.932;2023-02-25T02:24:11;94404.25;;;2.53;100.00
11038;BME280;5572;49.540;11.932;2023-02-25T02:26:51;94412.41;;;2.43;100.00
11038;BME280;5572;49.540;11.932;2023-02-25T02:32:33;94434.84;;;2.74;100.00
11038;BME280;5572;49.540;11.932;2023-02-25T02:35:09;94423.88;;;2.75;100.00
11038;BME280;5572;49.540;11.932;2023-02-25T02:37:43;94428.53;;;2.83;100.00
11038;BME280;5572;49.540;11.932;2023-02-25T02:40:20;94430.25;;;2.93;100.00
11038;BME280;5572;49.540;11.932;2023-02-25T02:43:05;94435.47;;;2.98;100.00
11038;BME280;5572;49.540;11.932;2023-02-25T02:45:40;94442.44;;;2.80;100.00
11038;BME280;5572;49.540;11.932;2023-02-25T02:48:13;94445.56;;;3.01;100.00
11038;BME280;5572;49.540;11.932;2023-02-25T02:50:44;94449.13;;;2.96;100.00
11038;BME280;5572;49.540;11.932;2023-02-25T02:53:16;94458.09;;;3.00;100.00
11038;BME280;5572;49.540;11.932;2023-02-25T02:55:50;94471.53;;;2.95;100.00
11038;BME280;5572;49.540;11.932;2023-02-25T02:58:21;94481.34;;;3.00;100.00
11038;BME280;5572;49.540;11.932;2023-02-25T03:00:54;94475.88;;;2.91;100.00
11038;BME280;5572;49.540;11.932;2023-02-25T03:03:29;94484.88;;;2.95;100.00
11038;BME280;5572;49.540;11.932;2023-02-25T03:06:04;94491.09;;;2.91;100.00
11038;BME280;5572;49.540;11.932;2023-02-25T03:08:37;94494.97;;;2.98;100.00
11038;BME280;5572;49.540;11.932;2023-02-25T03:11:06;94501.38;;;2.97;100.00
11038;BME280;5572;49.540;11.932;2023-02-25T03:13:33;94509.56;;;2.87;100.00
11038;BME280;5572;49.540;11.932;2023-02-25T03:16:03;94512.44;;;2.91;100.00
11038;BME280;5572;49.540;11.932;2023-02-25T03:18:35;94512.94;;;2.93;100.00
11038;BME280;5572;49.540;11.932;2023-02-25T03:21:12;94516.59;;;2.97;100.00
11038;BME280;5572;49.540;11.932;2023-02-25T03:23:43;94507.59;;;2.93;100.00
11038;BME280;5572;49.540;11.932;2023-02-25T03:26:19;94504.44;;;2.91;100.00
11038;BME280;5572;49.540;11.932;2023-02-25T03:28:47;94505.00;;;2.88;100.00
11038;BME280;5572;49.540;11.932;2023-02-25T03:31:17;94506.59;;;2.89;100.00
11038;BME280;5572;49.540;11.932;2023-02-25T03:33:53;94501.56;;;2.87;100.00
11038;BME280;5572;49.540;11.932;2023-02-25T03:36:26;94500.34;;;2.80;100.00
11038;BME280;5572;49.540;11.932;2023-02-25T03:38:57;94497.66;;;2.80;100.00
11038;BME280;5572;49.540;11.932;2023-02-25T03:41:29;94504.91;;;2.79;100.00
11038;BME280;5572;49.540;11.932;2023-02-25T03:44:00;94498.94;;;2.82;100.00
11038;BME280;5572;49.540;11.932;2023-02-25T03:46:30;94505.97;;;2.78;100.00
11038;BME280;5572;49.540;11.932;2023-02-25T03:49:01;94507.63;;;2.74;100.00
11038;BME280;5572;49.540;11.932;2023-02-25T03:51:30;94514.19;;;2.82;100.00
11038;BME280;5572;49.540;11.932;2023-02-25T03:53:58;94521.75;;;2.75;100.00
11038;BME280;5572;49.540;11.932;2023-02-25T03:56:25;94528.38;;;2.77;100.00
11038;BME280;5572;49.540;11.932;2023-02-25T03:58:51;94538.59;;;2.70;100.00
11038;BME280;5572;49.540;11.932;2023-02-25T04:01:22;94534.09;;;2.71;100.00
11038;BME280;5572;49.540;11.932;2023-02-25T04:03:50;94545.84;;;2.70;100.00
11038;BME280;5572;49.540;11.932;2023-02-25T04:06:22;94545.47;;;2.76;100.00
11038;BME280;5572;49.540;11.932;2023-02-25T04:08:50;94550.28;;;2.74;100.00
11038;BME280;5572;49.540;11.932;2023-02-25T04:11:17;94557.06;;;2.67;100.00
11038;BME280;5572;49.540;11.932;2023-02-25T04:13:43;94560.75;;;2.71;100.00
11038;BME280;5572;49.540;11.932;2023-02-25T04:16:10;94569.31;;;2.68;100.00
11038;BME280;5572;49.540;11.932;2023-02-25T04:18:38;94566.88;;;2.53;100.00
11038;BME280;5572;49.540;11.932;2023-02-25T04:21:04;94576.47;;;2.54;100.00
11038;BME280;5572;49.540;11.932;2023-02-25T04:23:33;94590.16;;;2.48;100.00
11038;BME280;5572;49.540;11.932;2023-02-25T04:25:59;94596.06;;;2.45;100.00
11038;BME280;5572;49.540;11.932;2023-02-25T04:28:26;94602.47;;;2.44;100.00
11038;BME280;5572;49.540;11.932;2023-02-25T04:30:53;94600.00;;;2.47;100.00
11038;BME280;5572;49.540;11.932;2023-02-25T04:33:19;94600.94;;;2.56;100.00
11038;BME280;5572;49.540;11.932;2023-02-25T04:35:46;94611.06;;;2.59;100.00
11038;BME280;5572;49.540;11.932;2023-02-25T04:38:12;94608.81;;;2.48;100.00
11038;BME280;5572;49.540;11.932;2023-02-25T04:40:40;94622.56;;;2.54;100.00
11038;BME280;5572;49.540;11.932;2023-02-25T04:43:07;94635.84;;;2.59;100.00
11038;BME280;5572;49.540;11.932;2023-02-25T04:45:34;94636.63;;;2.60;100.00
11038;BME280;5572;49.540;11.932;2023-02-25T04:48:00;94639.66;;;2.53;100.00
11038;BME280;5572;49.540;11.932;2023-02-25T04:50:27;94644.34;;;2.61;100.00
11038;BME280;5572;49.540;11.932;2023-02-25T04:52:54;94652.28;;;2.66;100.00
11038;BME280;5572;49.540;11.932;2023-02-25T04:55:22;94647.94;;;2.70;100.00
11038;BME280;5572;49.540;11.932;2023-02-25T04:57:50;94656.81;;;2.66;100.00
11038;BME280;5572;49.540;11.932;2023-02-25T05:00:18;94660.00;;;2.68;100.00
11038;BME280;5572;49.540;11.932;2023-02-25T05:02:49;94647.16;;;2.70;100.00
11038;BME280;5572;49.540;11.932;2023-02-25T05:05:16;94655.34;;;2.78;100.00
11038;BME280;5572;49.540;11.932;2023-02-25T05:07:43;94648.97;;;2.74;100.00
11038;BME280;5572;49.540;11.932;2023-02-25T05:10:12;94655.34;;;2.78;100.00
11038;BME280;5572;49.540;11.932;2023-02-25T05:12:40;94652.06;;;2.81;100.00
11038;BME280;5572;49.540;11.932;2023-02-25T05:15:09;94655.38;;;2.73;100.00
11038;BME280;5572;49.540;11.932;2023-02-25T05:17:36;94666.34;;;2.72;100.00
11038;BME280;5572;49.540;11.932;2023-02-25T05:20:04;94653.53;;;2.74;100.00
11038;BME280;5572;49.540;11.932;2023-02-25T05:22:36;94655.03;;;2.80;100.00
11038;BME280;5572;49.540;11.932;2023-02-25T05:25:02;94663.03;;;2.80;100.00
11038;BME280;5572;49.540;11.932;2023-02-25T05:27:29;94653.41;;;2.84;100.00
11038;BME280;5572;49.540;11.932;2023-02-25T05:29:55;94660.06;;;2.81;100.00
11038;BME280;5572;49.540;11.932;2023-02-25T05:32:23;94669.44;;;2.79;100.00
11038;BME280;5572;49.540;11.932;2023-02-25T05:34:50;94673.94;;;2.83;100.00
11038;BME280;5572;49.540;11.932;2023-02-25T05:37:16;94671.03;;;2.80;100.00
11038;BME280;5572;49.540;11.932;2023-02-25T05:39:43;94678.53;;;2.78;100.00
11038;BME280;5572;49.540;11.932;2023-02-25T05:42:10;94684.94;;;2.77;100.00
11038;BME280;5572;49.540;11.932;2023-02-25T05:44:36;94680.28;;;2.87;100.00
11038;BME280;5572;49.540;11.932;2023-02-25T05:47:03;94693.97;;;2.81;100.00
11038;BME280;5572;49.540;11.932;2023-02-25T05:49:31;94691.59;;;2.79;100.00
11038;BME280;5572;49.540;11.932;2023-02-25T05:51:58;94701.13;;;2.85;100.00
11038;BME280;5572;49.540;11.932;2023-02-25T05:54:24;94696.34;;;2.82;100.00
11038;BME280;5572;49.540;11.932;2023-02-25T05:56:51;94705.50;;;2.76;100.00
11038;BME280;5572;49.540;11.932;2023-02-25T05:59:18;94695.34;;;2.78;100.00
11038;BME280;5572;49.540;11.932;2023-02-25T06:01:44;94678.53;;;2.78;100.00
11038;BME280;5572;49.540;11.932;2023-02-25T06:04:11;94672.69;;;2.76;100.00
11038;BME280;5572;49.540;11.932;2023-02-25T06:06:39;94681.84;;;2.70;100.00
11038;BME280;5572;49.540;11.932;2023-02-25T06:09:06;94685.53;;;2.74;100.00
11038;BME280;5572;49.540;11.932;2023-02-25T06:11:34;94683.72;;;2.69;100.00
11038;BME280;5572;49.540;11.932;2023-02-25T06:14:00;94696.69;;;2.76;100.00
11038;BME280;5572;49.540;11.932;2023-02-25T06:16:28;94719.81;;;2.62;100.00
11038;BME280;5572;49.540;11.932;2023-02-25T06:18:56;94733.16;;;2.62;100.00
11038;BME280;5572;49.540;11.932;2023-02-25T06:21:23;94739.56;;;2.61;100.00
11038;BME280;5572;49.540;11.932;2023-02-25T06:23:52;94746.25;;;2.58;100.00
11038;BME280;5572;49.540;11.932;2023-02-25T06:26:18;94749.38;;;2.65;100.00
11038;BME280;5572;49.540;11.932;2023-02-25T06:28:45;94735.81;;;2.62;100.00
11038;BME280;5572;49.540;11.932;2023-02-25T06:31:13;94735.59;;;2.58;100.00
11038;BME280;5572;49.540;11.932;2023-02-25T06:33:40;94749.16;;;2.62;100.00
11038;BME280;5572;49.540;11.932;2023-02-25T06:36:08;94762.06;;;2.73;100.00
11038;BME280;5572;49.540;11.932;2023-02-25T06:38:35;94763.38;;;2.76;100.00
11038;BME280;5572;49.540;11.932;2023-02-25T06:41:06;94754.63;;;2.70;100.00
11038;BME280;5572;49.540;11.932;2023-02-25T06:43:32;94784.75;;;2.94;100.00
11038;BME280;5572;49.540;11.932;2023-02-25T06:46:03;94772.31;;;2.85;100.00
11038;BME280;5572;49.540;11.932;2023-02-25T06:48:29;94771.88;;;2.78;100.00
11038;BME280;5572;49.540;11.932;2023-02-25T06:50:56;94779.25;;;2.86;100.00
11038;BME280;5572;49.540;11.932;2023-02-25T06:53:22;94769.31;;;2.91;100.00
11038;BME280;5572;49.540;11.932;2023-02-25T06:55:49;94777.31;;;2.91;100.00
11038;BME280;5572;49.540;11.932;2023-02-25T06:58:17;94774.81;;;3.00;100.00
11038;BME280;5572;49.540;11.932;2023-02-25T07:00:44;94778.53;;;3.04;100.00
11038;BME280;5572;49.540;11.932;2023-02-25T07:03:11;94776.06;;;3.07;100.00
11038;BME280;5572;49.540;11.932;2023-02-25T07:05:37;94776.06;;;3.07;100.00
11038;BME280;5572;49.540;11.932;2023-02-25T07:08:04;94775.25;;;3.07;100.00
11038;BME280;5572;49.540;11.932;2023-02-25T07:10:31;94792.22;;;2.97;100.00
11038;BME280;5572;49.540;11.932;2023-02-25T07:12:58;94785.69;;;3.08;100.00
11038;BME280;5572;49.540;11.932;2023-02-25T07:15:26;94788.69;;;3.02;100.00
11038;BME280;5572;49.540;11.932;2023-02-25T07:17:53;94782.16;;;3.13;100.00
11038;BME280;5572;49.540;11.932;2023-02-25T07:20:19;94773.69;;;3.06;100.00
11038;BME280;5572;49.540;11.932;2023-02-25T07:22:47;94783.59;;;3.24;100.00
11038;BME280;5572;49.540;11.932;2023-02-25T07:25:13;94778.19;;;3.29;100.00
11038;BME280;5572;49.540;11.932;2023-02-25T07:27:40;94783.81;;;3.27;100.00
11038;BME280;5572;49.540;11.932;2023-02-25T07:30:08;94788.44;;;3.40;100.00
11038;BME280;5572;49.540;11.932;2023-02-25T07:32:39;94770.34;;;3.37;100.00
11038;BME280;5572;49.540;11.932;2023-02-25T07:35:07;94787.88;;;3.43;100.00
11038;BME280;5572;49.540;11.932;2023-02-25T07:37:34;94788.13;;;3.23;100.00
11038;BME280;5572;49.540;11.932;2023-02-25T07:40:02;94791.09;;;3.40;100.00
11038;BME280;5572;49.540;11.932;2023-02-25T07:42:28;94795.66;;;3.39;100.00
11038;BME280;5572;49.540;11.932;2023-02-25T07:44:55;94804.69;;;3.43;100.00
11038;BME280;5572;49.540;11.932;2023-02-25T07:47:21;94806.38;;;3.58;100.00
11038;BME280;5572;49.540;11.932;2023-02-25T07:49:49;94807.31;;;3.67;100.00
11038;BME280;5572;49.540;11.932;2023-02-25T07:52:16;94812.34;;;3.68;100.00
11038;BME280;5572;49.540;11.932;2023-02-25T07:54:42;94828.47;;;3.40;100.00
11038;BME280;5572;49.540;11.932;2023-02-25T07:57:09;94833.56;;;3.41;100.00
11038;BME280;5572;49.540;11.932;2023-02-25T07:59:36;94846.31;;;3.44;100.00
11038;BME280;5572;49.540;11.932;2023-02-25T08:02:03;94840.00;;;3.59;100.00
11038;BME280;5572;49.540;11.932;2023-02-25T08:04:29;94840.28;;;3.57;100.00
11038;BME280;5572;49.540;11.932;2023-02-25T08:06:57;94857.41;;;3.33;100.00
11038;BME280;5572;49.540;11.932;2023-02-25T08:09:24;94850.56;;;3.45;100.00
11038;BME280;5572;49.540;11.932;2023-02-25T08:11:50;94849.63;;;3.37;100.00
11038;BME280;5572;49.540;11.932;2023-02-25T08:14:17;94853.63;;;3.39;100.00
11038;BME280;5572;49.540;11.932;2023-02-25T08:16:46;94851.38;;;3.46;100.00
11038;BME280;5572;49.540;11.932;2023-02-25T08:19:13;94865.44;;;3.33;100.00
11038;BME280;5572;49.540;11.932;2023-02-25T08:21:40;94853.84;;;3.61;100.00
11038;BME280;5572;49.540;11.932;2023-02-25T08:24:08;94864.75;;;3.64;100.00
11038;BME280;5572;49.540;11.932;2023-02-25T08:26:35;94861.81;;;3.66;100.00
11038;BME280;5572;49.540;11.932;2023-02-25T08:29:02;94863.19;;;3.63;100.00
11038;BME280;5572;49.540;11.932;2023-02-25T08:31:29;94884.06;;;3.38;100.00
11038;BME280;5572;49.540;11.932;2023-02-25T08:33:55;94863.31;;;3.72;100.00
11038;BME280;5572;49.540;11.932;2023-02-25T08:36:25;94879.69;;;3.65;100.00
11038;BME280;5572;49.540;11.932;2023-02-25T08:38:54;94886.72;;;3.80;100.00
11038;BME280;5572;49.540;11.932;2023-02-25T08:41:24;94897.84;;;3.87;100.00
11038;BME280;5572;49.540;11.932;2023-02-25T08:43:52;94906.34;;;3.70;100.00
11038;BME280;5572;49.540;11.932;2023-02-25T08:46:19;94897.81;;;3.68;100.00
11038;BME280;5572;49.540;11.932;2023-02-25T08:48:47;94911.00;;;3.83;100.00
11038;BME280;5572;49.540;11.932;2023-02-25T08:51:15;94925.78;;;3.76;100.00
11038;BME280;5572;49.540;11.932;2023-02-25T08:53:41;94926.16;;;4.06;100.00
11038;BME280;5572;49.540;11.932;2023-02-25T08:56:10;94918.38;;;4.10;100.00
11038;BME280;5572;49.540;11.932;2023-02-25T08:58:39;94921.25;;;4.31;100.00
11038;BME280;5572;49.540;11.932;2023-02-25T09:01:06;94945.69;;;4.07;100.00
11038;BME280;5572;49.540;11.932;2023-02-25T09:03:37;94948.09;;;4.26;100.00
11038;BME280;5572;49.540;11.932;2023-02-25T09:06:04;94939.41;;;4.53;100.00
11038;BME280;5572;49.540;11.932;2023-02-25T09:08:31;94975.47;;;4.19;100.00
11038;BME280;5572;49.540;11.932;2023-02-25T09:10:58;94973.53;;;4.24;100.00
11038;BME280;5572;49.540;11.932;2023-02-25T09:13:27;94998.81;;;4.31;100.00
11038;BME280;5572;49.540;11.932;2023-02-25T09:15:57;95003.41;;;4.81;100.00
11038;BME280;5572;49.540;11.932;2023-02-25T09:18:23;95000.88;;;5.08;100.00
11038;BME280;5572;49.540;11.932;2023-02-25T09:20:50;95029.34;;;4.67;100.00
11038;BME280;5572;49.540;11.932;2023-02-25T09:23:17;95043.56;;;4.44;100.00
11038;BME280;5572;49.540;11.932;2023-02-25T09:25:44;95076.94;;;4.28;100.00
11038;BME280;5572;49.540;11.932;2023-02-25T09:28:11;95070.69;;;4.75;100.00
11038;BME280;5572;49.540;11.932;2023-02-25T09:30:38;95067.25;;;4.93;100.00
11038;BME280;5572;49.540;11.932;2023-02-25T09:33:06;95072.50;;;5.16;100.00
11038;BME280;5572;49.540;11.932;2023-02-25T09:35:32;95081.56;;;5.65;100.00
11038;BME280;5572;49.540;11.932;2023-02-25T09:37:59;95092.06;;;5.80;100.00
11038;BME280;5572;49.540;11.932;2023-02-25T09:40:25;95110.81;;;6.12;100.00
11038;BME280;5572;49.540;11.932;2023-02-25T09:43:02;95141.31;;;5.52;100.00
11038;BME280;5572;49.540;11.932;2023-02-25T09:45:32;95152.53;;;5.36;100.00
11038;BME280;5572;49.540;11.932;2023-02-25T09:48:03;95185.09;;;4.64;100.00
11038;BME280;5572;49.540;11.932;2023-02-25T09:50:35;95216.81;;;4.76;100.00
11038;BME280;5572;49.540;11.932;2023-02-25T09:53:09;95217.13;;;4.69;100.00
11038;BME280;5572;49.540;11.932;2023-02-25T09:55:41;95249.00;;;4.71;100.00
11038;BME280;5572;49.540;11.932;2023-02-25T09:58:16;95263.84;;;4.58;100.00
11038;BME280;5572;49.540;11.932;2023-02-25T10:00:47;95277.75;;;4.84;100.00
11038;BME280;5572;49.540;11.932;2023-02-25T10:03:20;95292.22;;;4.54;100.00
11038;BME280;5572;49.540;11.932;2023-02-25T10:05:56;95312.22;;;4.62;100.00
11038;BME280;5572;49.540;11.932;2023-02-25T10:08:29;95312.88;;;4.77;100.00
11038;BME280;5572;49.540;11.932;2023-02-25T10:11:02;95342.38;;;4.44;100.00
11038;BME280;5572;49.540;11.932;2023-02-25T10:13:40;95346.34;;;4.46;100.00
11038;BME280;5572;49.540;11.932;2023-02-25T10:16:24;95383.50;;;4.48;100.00
11038;BME280;5572;49.540;11.932;2023-02-25T10:19:04;95383.13;;;4.59;100.00
11038;BME280;5572;49.540;11.932;2023-02-25T10:21:50;95383.81;;;4.75;100.00
11038;BME280;5572;49.540;11.932;2023-02-25T10:24:29;95402.13;;;4.63;100.00
11038;BME280;5572;49.540;11.932;2023-02-25T10:27:05;95419.28;;;4.57;100.00
11038;BME280;5572;49.540;11.932;2023-02-25T10:29:38;95420.53;;;4.69;100.00
11038;BME280;5572;49.540;11.932;2023-02-25T10:32:15;95447.44;;;4.49;100.00
11038;BME280;5572;49.540;11.932;2023-02-25T10:34:42;95443.78;;;4.74;100.00
11038;BME280;5572;49.540;11.932;2023-02-25T10:37:16;95443.88;;;4.92;100.00
11038;BME280;5572;49.540;11.932;2023-02-25T10:39:44;95469.75;;;4.73;100.00
11038;BME280;5572;49.540;11.932;2023-02-25T10:42:13;95466.44;;;4.53;100.00
11038;BME280;5572;49.540;11.932;2023-02-25T10:44:40;95481.41;;;4.87;100.00
11038;BME280;5572;49.540;11.932;2023-02-25T10:47:11;95490.44;;;4.96;100.00
11038;BME280;5572;49.540;11.932;2023-02-25T10:49:40;95500.47;;;4.81;100.00
11038;BME280;5572;49.540;11.932;2023-02-25T10:52:15;95500.44;;;5.19;100.00
11038;BME280;5572;49.540;11.932;2023-02-25T10:54:46;95504.75;;;5.43;100.00
11038;BME280;5572;49.540;11.932;2023-02-25T10:57:16;95518.16;;;5.43;100.00
11038;BME280;5572;49.540;11.932;2023-02-25T10:59:43;95544.59;;;5.21;100.00
11038;BME280;5572;49.540;11.932;2023-02-25T11:02:21;95555.50;;;5.30;100.00
11038;BME280;5572;49.540;11.932;2023-02-25T11:04:50;95557.34;;;5.34;100.00
11038;BME280;5572;49.540;11.932;2023-02-25T11:07:30;95575.75;;;5.46;100.00
11038;BME280;5572;49.540;11.932;2023-02-25T11:10:07;95580.34;;;5.40;100.00
11038;BME280;5572;49.540;11.932;2023-02-25T11:12:42;95602.06;;;5.39;100.00
11038;BME280;5572;49.540;11.932;2023-02-25T11:15:37;95624.66;;;5.23;100.00
11038;BME280;5572;49.540;11.932;2023-02-25T11:18:14;95637.63;;;5.44;100.00
11038;BME280;5572;49.540;11.932;2023-02-25T11:20:48;95645.75;;;5.34;100.00
11038;BME280;5572;49.540;11.932;2023-02-25T11:23:20;95628.50;;;6.12;100.00
11038;BME280;5572;49.540;11.932;2023-02-25T11:25:48;95637.97;;;6.28;100.00
11038;BME280;5572;49.540;11.932;2023-02-25T11:28:24;95665.41;;;5.92;100.00
11038;BME280;5572;49.540;11.932;2023-02-25T11:30:53;95669.59;;;6.31;100.00
11038;BME280;5572;49.540;11.932;2023-02-25T11:33:24;95680.28;;;6.36;100.00
11038;BME280;5572;49.540;11.932;2023-02-25T11:35:55;95708.91;;;5.89;100.00
11038;BME280;5572;49.540;11.932;2023-02-25T11:38:27;95729.63;;;5.78;100.00
11038;BME280;5572;49.540;11.932;2023-02-25T11:40:54;95726.03;;;5.93;100.00
11038;BME280;5572;49.540;11.932;2023-02-25T11:43:22;95735.44;;;5.90;100.00
11038;BME280;5572;49.540;11.932;2023-02-25T11:45:52;95751.22;;;5.92;100.00
11038;BME280;5572;49.540;11.932;2023-02-25T11:48:26;95765.16;;;5.98;100.00
11038;BME280;5572;49.540;11.932;2023-02-25T12:18:47;96137.25;;;3.70;100.00
11038;BME280;5572;49.540;11.932;2023-02-25T12:24:34;96101.56;;;2.60;100.00
11038;BME280;5572;49.540;11.932;2023-02-25T12:27:20;96034.88;;;2.60;100.00
11038;BME280;5572;49.540;11.932;2023-02-25T12:30:11;95955.22;;;2.69;100.00
11038;BME280;5572;49.540;11.932;2023-02-25T12:33:00;95859.00;;;3.37;100.00
11038;BME280;5572;49.540;11.932;2023-02-25T14:22:18;94997.97;;;3.71;100.00
11038;BME280;5572;49.540;11.932;2023-02-25T14:24:55;95004.75;;;3.63;100.00
11038;BME280;5572;49.540;11.932;2023-02-25T14:27:33;94996.03;;;3.76;100.00
11038;BME280;5572;49.540;11.932;2023-02-25T14:30:20;95020.78;;;3.87;100.00
11038;BME280;5572;49.540;11.932;2023-02-25T14:33:10;95023.16;;;3.88;100.00
11038;BME280;5572;49.540;11.932;2023-02-25T14:35:50;95023.41;;;3.40;100.00
11038;BME280;5572;49.540;11.932;2023-02-25T14:38:33;95040.88;;;2.99;100.00
11038;BME280;5572;49.540;11.932;2023-02-25T14:41:21;95042.13;;;3.07;100.00
11038;BME280;5572;49.540;11.932;2023-02-25T14:43:56;95040.91;;;2.94;100.00
11038;BME280;5572;49.540;11.932;2023-02-25T15:07:44;95021.47;;;2.89;100.00
11038;BME280;5572;49.540;11.932;2023-02-25T15:27:49;95060.22;;;2.38;100.00
11038;BME280;5572;49.540;11.932;2023-02-25T15:30:21;95048.19;;;2.46;100.00
11038;BME280;5572;49.540;11.932;2023-02-25T15:33:04;95046.88;;;2.38;100.00
11038;BME280;5572;49.540;11.932;2023-02-25T15:35:54;95041.03;;;2.36;100.00
11038;BME280;5572;49.540;11.932;2023-02-25T15:38:42;95028.72;;;2.45;100.00
11038;BME280;5572;49.540;11.932;2023-02-25T15:41:40;95038.38;;;2.36;100.00
11038;BME280;5572;49.540;11.932;2023-02-25T15:44:43;95059.88;;;1.96;100.00
11038;BME280;5572;49.540;11.932;2023-02-25T15:47:21;95044.38;;;2.08;100.00
11038;BME280;5572;49.540;11.932;2023-02-25T15:49:49;95051.09;;;1.96;100.00
11038;BME280;5572;49.540;11.932;2023-02-25T15:55:26;95041.88;;;1.73;100.00
11038;BME280;5572;49.540;11.932;2023-02-25T15:57:56;95036.78;;;1.72;100.00
11038;BME280;5572;49.540;11.932;2023-02-25T16:00:52;95036.19;;;1.90;100.00
11038;BME280;5572;49.540;11.932;2023-02-25T16:03:37;95034.09;;;1.87;100.00
11038;BME280;5572;49.540;11.932;2023-02-25T16:06:06;95027.91;;;2.01;100.00
11038;BME280;5572;49.540;11.932;2023-02-25T16:08:38;95034.06;;;1.92;100.00
11038;BME280;5572;49.540;11.932;2023-02-25T16:11:17;95032.25;;;1.77;100.00
11038;BME280;5572;49.540;11.932;2023-02-25T16:13:46;95037.06;;;1.66;100.00
11038;BME280;5572;49.540;11.932;2023-02-25T16:16:15;95038.69;;;1.57;100.00
11038;BME280;5572;49.540;11.932;2023-02-25T16:18:45;95030.16;;;1.69;100.00
11038;BME280;5572;49.540;11.932;2023-02-25T16:21:20;95032.59;;;1.56;100.00